Time;durP1;ratioP1;P1;durP2;ratioP2;P2;SDS_P1;SDS_P2;PMS_P1;PMS_P2;Temp;Humidity;BMP_temperature;BMP_pressure;BME280_temperature;BME280_humidity;BME280_pressure;Samples;Min_cycle;Max_cycle;Signal;HPM_P1;HPM_P2
2022/04/08 00:01:36;;;;;;;9.28;7.10;;;;;;;20.43;41.05;99056.72;1656770;86;21062;-59
2022/04/08 00:04:03;;;;;;;8.70;6.90;;;;;;;20.42;41.04;99049.58;1656810;86;21015;-59
2022/04/08 00:06:29;;;;;;;8.63;7.33;;;;;;;20.42;41.03;99051.77;1657104;86;21617;-59
2022/04/08 00:08:55;;;;;;;7.60;6.50;;;;;;;20.42;41.01;99044.05;1656363;86;21101;-59
2022/04/08 00:11:21;;;;;;;9.13;6.60;;;;;;;20.41;40.99;99043.25;1657213;86;20874;-60
2022/04/08 00:13:51;;;;;;;9.28;6.72;;;;;;;20.41;40.99;99041.87;1656723;86;22268;-59
2022/04/08 00:16:14;;;;;;;9.73;7.08;;;;;;;20.41;40.97;99045.23;1656273;86;21573;-59
2022/04/08 00:18:40;;;;;;;9.48;7.62;;;;;;;20.41;40.97;99048.77;1656973;86;21128;-59
2022/04/08 00:21:07;;;;;;;9.95;7.00;;;;;;;20.41;40.95;99041.09;1656557;86;21362;-59
2022/04/08 00:23:34;;;;;;;10.38;7.42;;;;;;;20.41;40.95;99045.23;1656800;86;20942;-59
2022/04/08 00:26:00;;;;;;;9.63;7.40;;;;;;;20.39;40.92;99046.97;1656371;86;20982;-59
2022/04/08 00:28:26;;;;;;;7.55;6.55;;;;;;;20.39;40.92;99052.49;1657212;86;20883;-59
2022/04/08 00:30:52;;;;;;;8.60;7.05;;;;;;;20.40;40.92;99048.58;1655565;86;21204;-59
2022/04/08 00:33:18;;;;;;;7.92;6.35;;;;;;;20.39;40.90;99046.97;1657124;86;20970;-59
2022/04/08 00:35:44;;;;;;;9.88;7.22;;;;;;;20.40;40.90;99046.39;1656645;86;20914;-59
2022/04/08 00:38:10;;;;;;;8.30;7.00;;;;;;;20.40;40.88;99046.39;1656881;86;21342;-59
2022/04/08 00:40:36;;;;;;;10.32;7.15;;;;;;;20.40;40.86;99045.81;1656698;86;20907;-59
2022/04/08 00:43:16;;;;;;;11.03;7.12;;;;;;;20.39;40.86;99048.92;1657170;86;21059;-60
2022/04/08 00:45:43;;;;;;;8.20;6.72;;;;;;;20.39;40.82;99051.69;1656927;86;20994;-59
2022/04/08 00:48:09;;;;;;;9.63;6.72;;;;;;;20.39;40.80;99051.69;1656800;86;22023;-59
2022/04/08 00:50:41;;;;;;;8.23;6.62;;;;;;;20.39;40.78;99067.69;1657061;86;21010;-60
2022/04/08 00:53:07;;;;;;;8.40;7.03;;;;;;;20.38;40.78;99053.64;1656312;86;21040;-59
2022/04/08 00:55:37;;;;;;;9.00;7.47;;;;;;;20.38;40.78;99055.02;1657217;86;21226;-59
2022/04/08 00:58:04;;;;;;;8.83;6.87;;;;;;;20.38;40.77;99046.73;1656866;86;21438;-60
2022/04/08 01:00:36;;;;;;;8.28;6.87;;;;;;;20.37;40.76;99042.37;1656684;86;21302;-59
2022/04/08 01:03:03;;;;;;;8.65;6.97;;;;;;;20.37;40.76;99037.42;1656506;86;21383;-59
2022/04/08 01:05:29;;;;;;;7.58;6.75;;;;;;;20.37;40.74;99038.80;1656559;86;21106;-59
2022/04/08 01:07:55;;;;;;;8.43;6.75;;;;;;;20.36;40.74;99043.55;1656120;86;21198;-59
2022/04/08 01:10:21;;;;;;;9.20;6.70;;;;;;;20.36;40.72;99033.88;1656220;85;20973;-59
2022/04/08 01:12:49;;;;;;;8.63;7.05;;;;;;;20.36;40.72;99039.41;1656676;86;21026;-59
2022/04/08 01:15:18;;;;;;;8.40;6.67;;;;;;;20.37;40.72;99050.66;1655963;86;20959;-59
2022/04/08 01:17:44;;;;;;;7.58;6.42;;;;;;;20.36;40.71;99057.94;1656235;86;20960;-59
2022/04/08 01:20:11;;;;;;;8.55;6.65;;;;;;;20.35;40.68;99050.23;1655927;85;21894;-59
2022/04/08 01:22:37;;;;;;;8.35;7.03;;;;;;;20.35;40.66;99059.89;1656107;86;20990;-59
2022/04/08 01:25:04;;;;;;;8.30;7.12;;;;;;;20.35;40.65;99065.99;1655968;86;20903;-59
2022/04/08 01:27:30;;;;;;;9.28;7.35;;;;;;;20.36;40.63;99070.36;1656447;86;20895;-59
2022/04/08 01:29:57;;;;;;;7.83;7.03;;;;;;;20.35;40.64;99071.52;1653232;86;21101;-59
2022/04/08 01:32:23;;;;;;;7.47;6.25;;;;;;;20.35;40.61;99075.08;1661837;85;21298;-60
2022/04/08 01:34:49;;;;;;;7.60;6.50;;;;;;;20.34;40.61;99074.05;1633292;87;21064;-59
2022/04/08 01:37:16;;;;;;;8.33;7.42;;;;;;;20.34;40.59;99081.76;1661380;85;21297;-59
2022/04/08 01:39:42;;;;;;;9.75;7.60;;;;;;;20.33;40.59;99076.58;1633162;87;21087;-59
2022/04/08 01:42:09;;;;;;;7.90;7.10;;;;;;;20.33;40.57;99075.20;1661194;85;20906;-59
2022/04/08 01:44:36;;;;;;;9.40;7.15;;;;;;;20.34;40.55;99075.42;1633300;87;21369;-59
2022/04/08 01:47:03;;;;;;;8.28;6.87;;;;;;;20.34;40.53;99068.53;1661418;86;20926;-59
2022/04/08 01:49:29;;;;;;;10.68;7.67;;;;;;;20.33;40.53;99060.01;1633546;87;21025;-59
2022/04/08 01:51:55;;;;;;;6.97;6.28;;;;;;;20.32;40.50;99059.23;1661152;86;20965;-59
2022/04/08 01:54:21;;;;;;;9.43;7.62;;;;;;;20.32;40.49;99059.81;1633373;87;21034;-59
2022/04/08 01:56:53;;;;;;;8.28;6.80;;;;;;;20.31;40.47;99062.34;1661731;86;21121;-59
2022/04/08 01:59:19;;;;;;;10.45;7.25;;;;;;;20.31;40.48;99058.20;1633050;87;21120;-59
2022/04/08 02:01:45;;;;;;;10.40;7.58;;;;;;;20.32;40.47;99065.33;1640485;86;21030;-59
2022/04/08 02:04:11;;;;;;;7.85;6.72;;;;;;;20.31;40.45;99071.44;1634363;87;20917;-59
2022/04/08 02:06:40;;;;;;;8.10;7.30;;;;;;;20.30;40.43;99067.64;1637310;87;21035;-59
2022/04/08 02:09:07;;;;;;;10.50;7.67;;;;;;;20.30;40.43;99073.97;1634121;87;20946;-59
2022/04/08 02:11:35;;;;;;;7.65;6.78;;;;;;;20.30;40.42;99080.06;1637361;87;20955;-59
2022/04/08 02:14:02;;;;;;;9.95;7.47;;;;;;;20.30;40.41;99085.59;1633740;87;20985;-59
2022/04/08 02:16:28;;;;;;;8.53;7.05;;;;;;;20.29;40.38;99083.95;1637358;87;21319;-59
2022/04/08 02:18:54;;;;;;;8.98;7.15;;;;;;;20.29;40.35;99088.09;1634311;87;21072;-59
2022/04/08 02:21:21;;;;;;;7.92;6.65;;;;;;;20.29;40.36;99088.09;1637150;87;21313;-59
2022/04/08 02:23:53;;;;;;;9.75;6.72;;;;;;;20.29;40.35;99093.61;1634145;87;21442;-59
2022/04/08 02:26:19;;;;;;;7.35;6.60;;;;;;;20.28;40.32;99079.03;1636614;86;21021;-59
2022/04/08 02:28:45;;;;;;;7.17;6.33;;;;;;;20.28;40.29;99069.94;1612436;87;21089;-59
2022/04/08 02:31:17;;;;;;;8.65;6.97;;;;;;;20.28;40.30;99079.61;1637039;87;21418;-59
2022/04/08 02:33:43;;;;;;;8.50;7.62;;;;;;;20.27;40.28;99080.18;1634562;87;21958;-59
2022/04/08 02:36:09;;;;;;;7.85;6.80;;;;;;;20.28;40.26;99075.46;1637102;87;20977;-59
2022/04/08 02:38:35;;;;;;;8.58;7.22;;;;;;;20.27;40.26;99068.33;1634735;87;21030;-59
2022/04/08 02:41:01;;;;;;;8.40;6.62;;;;;;;20.26;40.27;99088.23;1637153;87;21006;-59
2022/04/08 02:43:28;;;;;;;9.78;7.25;;;;;;;20.26;40.24;99082.71;1634080;87;21033;-59
2022/04/08 02:45:54;;;;;;;8.68;7.12;;;;;;;20.27;40.23;99083.52;1636907;86;21330;-60
2022/04/08 02:48:20;;;;;;;8.55;7.65;;;;;;;20.27;40.22;99095.95;1634462;87;21018;-59
2022/04/08 02:50:46;;;;;;;10.23;7.47;;;;;;;20.26;40.20;99100.66;1637144;87;20907;-59
2022/04/08 02:53:12;;;;;;;11.38;7.70;;;;;;;20.26;40.16;99096.52;1633785;87;20996;-59
2022/04/08 02:55:38;;;;;;;8.93;6.65;;;;;;;20.26;40.16;99099.28;1637556;87;21516;-59
2022/04/08 02:58:05;;;;;;;9.25;6.92;;;;;;;20.26;40.14;99091.57;1633532;87;21375;-59
2022/04/08 03:00:31;;;;;;;8.60;7.28;;;;;;;20.26;40.13;99104.80;1636636;85;21029;-59
2022/04/08 03:02:57;;;;;;;8.93;7.75;;;;;;;20.25;40.13;99102.39;1628603;88;21017;-59
2022/04/08 03:05:24;;;;;;;9.15;7.60;;;;;;;20.27;40.12;99102.84;1628616;87;20974;-59
2022/04/08 03:07:50;;;;;;;8.63;7.28;;;;;;;20.27;40.08;99113.89;1627167;88;21301;-59
2022/04/08 03:10:16;;;;;;;8.90;6.97;;;;;;;20.26;40.08;99113.09;1627647;87;22025;-59
2022/04/08 03:12:42;;;;;;;10.50;7.35;;;;;;;20.26;40.06;99118.61;1627271;88;21021;-59
2022/04/08 03:15:08;;;;;;;9.93;7.78;;;;;;;20.26;40.03;99117.23;1627466;87;20933;-59
2022/04/08 03:17:40;;;;;;;8.33;6.97;;;;;;;20.27;40.01;99133.22;1627241;87;20993;-59
2022/04/08 03:20:08;;;;;;;10.93;7.35;;;;;;;20.26;40.01;99139.33;1627123;88;20935;-59
2022/04/08 03:22:34;;;;;;;9.60;7.55;;;;;;;20.27;39.99;99140.13;1627548;88;21180;-59
2022/04/08 03:25:00;;;;;;;9.90;7.00;;;;;;;20.26;39.97;99144.05;1626955;87;20937;-59
2022/04/08 03:27:26;;;;;;;10.93;7.55;;;;;;;20.25;39.95;99137.71;1627166;88;20946;-59
2022/04/08 03:29:52;;;;;;;9.00;7.10;;;;;;;20.27;39.94;99138.75;1626791;88;20993;-59
2022/04/08 03:32:18;;;;;;;8.60;7.20;;;;;;;20.26;39.93;99126.09;1625380;88;21586;-59
2022/04/08 03:34:44;;;;;;;8.33;7.20;;;;;;;20.25;39.92;99122.52;1624930;88;21348;-59
2022/04/08 03:37:10;;;;;;;9.38;6.83;;;;;;;20.26;39.88;99137.94;1625497;87;21559;-59
2022/04/08 03:39:37;;;;;;;9.18;7.20;;;;;;;20.26;39.88;99151.75;1625396;88;21014;-59
2022/04/08 03:42:04;;;;;;;9.88;7.20;;;;;;;20.26;39.89;99157.84;1625132;87;21082;-59
2022/04/08 03:44:30;;;;;;;9.65;6.75;;;;;;;20.26;39.88;99157.27;1625727;88;21111;-59
2022/04/08 03:46:56;;;;;;;9.93;7.60;;;;;;;20.26;39.88;99168.89;1625077;88;21834;-60
2022/04/08 03:49:22;;;;;;;8.15;7.25;;;;;;;20.26;39.85;99171.08;1623681;87;21451;-59
2022/04/08 03:51:48;;;;;;;8.23;7.08;;;;;;;20.29;39.84;99171.78;1623961;88;20952;-59
2022/04/08 03:54:14;;;;;;;8.28;6.37;;;;;;;20.34;39.85;99191.43;1624179;88;21407;-59
2022/04/08 03:56:43;;;;;;;8.10;6.30;;;;;;;20.38;39.81;99218.56;1624277;88;21002;-59
2022/04/08 03:59:10;;;;;;;8.13;5.95;;;;;;;20.43;39.81;99221.08;1625607;87;21302;-59
2022/04/08 04:01:36;;;;;;;7.08;5.72;;;;;;;20.49;39.76;99205.86;1640861;86;21348;-59
2022/04/08 04:04:03;;;;;;;7.72;5.80;;;;;;;20.54;39.73;99224.91;1656429;85;20915;-59
2022/04/08 04:06:30;;;;;;;8.33;5.70;;;;;;;20.61;39.68;99218.78;1653743;85;20911;-59
2022/04/08 04:08:56;;;;;;;7.70;5.80;;;;;;;20.67;39.64;99211.81;1625809;85;21379;-59
2022/04/08 04:11:22;;;;;;;9.13;5.60;;;;;;;20.74;39.58;99222.49;1644597;86;21320;-59
2022/04/08 04:13:48;;;;;;;7.33;5.08;;;;;;;20.82;39.53;99224.27;1645864;85;21000;-59
2022/04/08 04:16:14;;;;;;;6.83;5.10;;;;;;;20.89;39.45;99219.48;1637279;84;21235;-59
2022/04/08 04:18:40;;;;;;;7.80;5.58;;;;;;;20.95;39.40;99209.78;1638665;86;21070;-59
2022/04/08 04:21:08;;;;;;;7.47;5.15;;;;;;;21.04;39.32;99210.97;1650796;85;21052;-59
2022/04/08 04:23:34;;;;;;;6.28;5.10;;;;;;;21.11;39.26;99219.42;1662724;84;21408;-59
2022/04/08 04:26:01;;;;;;;7.65;5.17;;;;;;;21.16;39.21;99225.53;1637807;87;21468;-59
2022/04/08 04:28:31;;;;;;;9.73;5.83;;;;;;;21.21;39.13;99223.87;1637851;86;20989;-59
2022/04/08 04:31:00;;;;;;;7.12;5.42;;;;;;;21.26;39.09;99227.72;1646816;85;21324;-59
2022/04/08 04:33:27;;;;;;;7.12;4.95;;;;;;;21.32;39.05;99228.26;1662054;84;22247;-59
2022/04/08 04:35:53;;;;;;;8.50;5.45;;;;;;;21.37;39.00;99226.60;1659602;85;21667;-59
2022/04/08 04:38:19;;;;;;;5.42;4.67;;;;;;;21.40;38.94;99234.98;1632617;86;21117;-59
2022/04/08 04:40:45;;;;;;;9.15;5.62;;;;;;;21.45;38.87;99237.23;1647214;85;21038;-59
2022/04/08 04:43:11;;;;;;;7.67;5.30;;;;;;;21.50;38.82;99247.45;1659949;86;21836;-60
2022/04/08 04:45:39;;;;;;;7.45;5.35;;;;;;;21.52;38.79;99238.77;1657896;84;21269;-60
2022/04/08 04:48:06;;;;;;;7.78;6.10;;;;;;;21.55;38.74;99231.96;1628231;86;21328;-60
2022/04/08 04:50:32;;;;;;;11.08;6.65;;;;;;;21.55;38.70;99231.96;1648353;84;21356;-60
2022/04/08 04:52:58;;;;;;;11.80;6.00;;;;;;;21.54;38.66;99234.50;1642756;85;21005;-62
2022/04/08 04:55:24;;;;;;;13.25;7.90;;;;;;;21.58;38.66;99256.72;1641419;85;21069;-59
2022/04/08 04:57:50;;;;;;;18.67;11.03;;;;;;;21.58;38.63;99265.83;1633943;85;21060;-60
2022/04/08 05:00:18;;;;;;;13.83;7.75;;;;;;;21.59;38.63;99272.16;1650332;84;21282;-58
2022/04/08 05:02:45;;;;;;;15.13;8.75;;;;;;;21.60;38.65;99275.94;1656813;84;21063;-59
2022/04/08 05:05:11;;;;;;;17.32;9.60;;;;;;;21.62;38.63;99275.58;1658042;84;20949;-59
2022/04/08 05:07:38;;;;;;;20.75;11.50;;;;;;;21.64;38.64;99282.96;1655274;85;21538;-59
2022/04/08 05:10:06;;;;;;;12.13;7.95;;;;;;;21.64;38.69;99282.96;1658185;85;21100;-59
2022/04/08 05:12:32;;;;;;;18.32;9.08;;;;;;;21.66;38.70;99291.69;1657710;84;21389;-59
2022/04/08 05:14:58;;;;;;;23.32;11.05;;;;;;;21.67;38.72;99299.64;1659123;85;20996;-60
2022/04/08 05:17:24;;;;;;;19.12;10.45;;;;;;;21.68;38.73;99297.68;1660400;85;21026;-59
2022/04/08 05:19:50;;;;;;;19.82;12.10;;;;;;;21.69;38.77;99294.53;1632698;86;20968;-59
2022/04/08 05:22:17;;;;;;;14.03;11.20;;;;;;;21.70;38.78;99298.11;1620311;87;20933;-61
2022/04/08 05:24:44;;;;;;;19.90;12.15;;;;;;;21.71;38.83;99307.45;1664529;84;21117;-59
2022/04/08 05:27:16;;;;;;;21.60;11.00;;;;;;;21.73;38.86;99315.37;1630108;86;21011;-59
2022/04/08 05:29:42;;;;;;;18.48;11.28;;;;;;;21.73;38.85;99320.33;1657173;85;21051;-59
2022/04/08 05:32:08;;;;;;;20.10;11.33;;;;;;;21.74;38.90;99321.94;1658319;84;21001;-59
2022/04/08 05:34:34;;;;;;;19.77;13.22;;;;;;;21.76;38.91;99322.97;1684009;84;21267;-59
2022/04/08 05:37:00;;;;;;;18.73;13.48;;;;;;;21.77;38.93;99328.13;1671194;84;21177;-59
2022/04/08 05:39:27;;;;;;;17.50;12.20;;;;;;;21.79;38.94;99331.94;1667174;85;21348;-59
2022/04/08 05:41:53;;;;;;;21.17;13.43;;;;;;;21.81;38.96;99325.47;1668316;84;20942;-59
2022/04/08 05:44:19;;;;;;;20.95;13.25;;;;;;;21.81;38.96;99321.31;1685442;84;21044;-60
2022/04/08 05:46:45;;;;;;;26.17;15.15;;;;;;;21.82;38.99;99329.81;1669365;84;21037;-60
2022/04/08 05:49:11;;;;;;;20.48;14.58;;;;;;;21.82;38.99;99334.77;1668230;84;21308;-60
2022/04/08 05:51:37;;;;;;;28.47;16.35;;;;;;;21.84;39.05;99345.50;1672609;84;21390;-60
2022/04/08 05:54:16;;;;;;;27.45;14.50;;;;;;;21.83;39.10;99344.69;1658414;84;21083;-61
2022/04/08 05:56:42;;;;;;;25.05;13.93;;;;;;;21.84;39.15;99346.30;1652254;85;21115;-60
2022/04/08 05:59:08;;;;;;;22.52;12.63;;;;;;;21.87;39.18;99355.84;1652952;85;22262;-62
2022/04/08 06:01:34;;;;;;;27.80;15.80;;;;;;;21.90;39.25;99361.27;1656121;85;21043;-61
2022/04/08 06:04:00;;;;;;;25.23;13.58;;;;;;;21.93;39.33;99367.48;1661261;85;21036;-60
2022/04/08 06:06:26;;;;;;;21.68;13.70;;;;;;;21.95;39.35;99363.17;1649818;85;20931;-61
2022/04/08 06:08:52;;;;;;;20.88;12.68;;;;;;;21.97;39.40;99375.29;1625658;87;20979;-61
2022/04/08 06:11:18;;;;;;;24.43;13.00;;;;;;;21.96;39.44;99370.33;1630255;86;21448;-62
2022/04/08 06:13:44;;;;;;;35.28;13.22;;;;;;;21.97;39.42;99371.94;1651539;85;21127;-62
2022/04/08 06:16:10;;;;;;;19.73;13.95;;;;;;;21.97;39.48;99371.94;1656734;84;21377;-60
2022/04/08 06:18:36;;;;;;;24.18;15.60;;;;;;;21.95;39.49;99372.06;1661427;85;20953;-60
2022/04/08 06:21:04;;;;;;;28.40;14.65;;;;;;;21.98;39.53;99382.44;1657217;85;21115;-61
2022/04/08 06:23:30;;;;;;;23.35;13.40;;;;;;;21.99;39.55;99386.22;1662403;85;20894;-61
2022/04/08 06:25:56;;;;;;;27.27;13.40;;;;;;;22.00;39.56;99389.22;1655050;85;22420;-61
2022/04/08 06:28:22;;;;;;;26.40;14.55;;;;;;;22.01;39.54;99387.25;1658074;85;21118;-61
2022/04/08 06:30:48;;;;;;;30.70;14.25;;;;;;;22.01;39.59;99389.44;1658581;85;21064;-62
2022/04/08 06:33:16;;;;;;;22.87;15.23;;;;;;;22.02;39.58;99389.67;1663276;84;21429;-62
2022/04/08 06:35:42;;;;;;;24.63;14.07;;;;;;;22.05;39.58;99404.75;1668468;84;21374;-62
2022/04/08 06:38:08;;;;;;;29.63;15.00;;;;;;;22.06;39.56;99413.28;1670960;84;21476;-62
2022/04/08 06:40:41;;;;;;;28.17;15.15;;;;;;;22.06;39.55;99408.55;1657668;84;20997;-62
2022/04/08 06:43:08;;;;;;;20.50;14.25;;;;;;;22.06;39.50;99409.94;1664062;84;21065;-62
2022/04/08 06:45:34;;;;;;;22.10;14.23;;;;;;;22.07;39.46;99416.25;1659424;84;21028;-62
2022/04/08 06:48:00;;;;;;;24.65;14.85;;;;;;;22.07;39.43;99415.67;1658236;84;20923;-62
2022/04/08 06:50:27;;;;;;;26.30;15.83;;;;;;;22.08;39.40;99423.41;1660882;84;21488;-59
2022/04/08 06:52:59;;;;;;;24.70;13.20;;;;;;;22.08;39.36;99444.98;1654536;85;21108;-59
2022/04/08 06:55:22;;;;;;;18.82;12.95;;;;;;;22.09;39.39;99441.06;1646499;85;20965;-59
2022/04/08 06:57:48;;;;;;;26.45;13.75;;;;;;;22.09;39.36;99451.33;1646910;85;20956;-58
2022/04/08 07:00:15;;;;;;;25.68;14.35;;;;;;;22.09;39.41;99453.52;1627045;87;21025;-60
2022/04/08 07:02:41;;;;;;;28.80;15.80;;;;;;;22.10;39.47;99457.10;1659381;84;21108;-59
2022/04/08 07:05:07;;;;;;;25.35;14.20;;;;;;;22.12;39.54;99465.84;1655125;85;21119;-59
2022/04/08 07:07:36;;;;;;;22.17;14.18;;;;;;;22.13;39.63;99464.69;1641570;85;21345;-59
2022/04/08 07:10:04;;;;;;;23.90;15.30;;;;;;;22.12;39.61;99469.42;1654206;84;21079;-59
2022/04/08 07:12:31;;;;;;;27.22;13.25;;;;;;;22.14;39.59;99470.45;1625657;86;21141;-60
2022/04/08 07:14:57;;;;;;;25.80;13.55;;;;;;;22.15;39.63;99483.15;1635091;85;21155;-61
2022/04/08 07:17:33;;;;;;;27.65;13.18;;;;;;;22.15;39.66;99483.92;1637714;85;21077;-61
2022/04/08 07:20:01;;;;;;;26.52;14.95;;;;;;;22.16;39.68;99482.77;1629951;86;21034;-61
2022/04/08 07:22:28;;;;;;;23.98;14.98;;;;;;;22.16;39.71;99484.16;1621619;85;21084;-61
2022/04/08 07:24:54;;;;;;;28.80;15.05;;;;;;;22.19;39.71;99490.34;1633156;85;22122;-61
2022/04/08 07:27:21;;;;;;;25.32;16.15;;;;;;;22.20;39.75;99487.00;1649261;85;21144;-60
2022/04/08 07:29:48;;;;;;;31.25;16.70;;;;;;;22.20;39.79;99482.27;1657542;85;21155;-61
2022/04/08 07:32:20;;;;;;;28.50;16.00;;;;;;;22.22;39.80;99481.92;1639918;85;21929;-60
2022/04/08 07:34:43;;;;;;;27.00;16.67;;;;;;;22.23;39.83;99482.15;1656596;84;22197;-60
2022/04/08 07:37:15;;;;;;;28.10;16.65;;;;;;;22.25;39.91;99486.16;1654346;85;21251;-60
2022/04/08 07:39:43;;;;;;;25.35;17.77;;;;;;;22.27;39.90;99494.11;1655697;85;21239;-60
2022/04/08 07:42:12;;;;;;;24.70;15.78;;;;;;;22.30;39.90;99498.93;1658029;85;21725;-59
2022/04/08 07:44:38;;;;;;;26.00;15.90;;;;;;;22.31;40.01;99506.89;1656922;85;21040;-59
2022/04/08 07:47:05;;;;;;;24.55;15.13;;;;;;;22.30;40.01;99513.59;1658276;85;21042;-61
2022/04/08 07:49:31;;;;;;;24.63;15.40;;;;;;;22.31;40.10;99518.55;1666187;85;21148;-59
2022/04/08 07:51:57;;;;;;;27.48;16.05;;;;;;;22.31;40.31;99511.05;1659490;85;21140;-61
2022/04/08 07:54:23;;;;;;;28.70;15.38;;;;;;;22.32;40.43;99516.79;1661943;85;21062;-62
2022/04/08 07:56:51;;;;;;;36.70;15.30;;;;;;;22.30;40.45;99510.81;1659611;85;32661;-63
2022/04/08 07:59:17;;;;;;;29.60;15.10;;;;;;;22.29;40.51;99516.13;1658957;85;21036;-62
2022/04/08 08:01:43;;;;;;;29.07;15.40;;;;;;;22.29;40.70;99525.83;1654431;85;21363;-61
2022/04/08 08:04:09;;;;;;;30.17;15.68;;;;;;;22.29;40.76;99531.95;1660663;85;21434;-62
2022/04/08 08:06:35;;;;;;;31.27;13.40;;;;;;;22.29;40.93;99534.72;1660476;84;21112;-61
2022/04/08 08:09:02;;;;;;;27.55;14.85;;;;;;;22.31;41.05;99533.80;1665951;84;21044;-59
2022/04/08 08:11:28;;;;;;;28.27;14.85;;;;;;;22.31;41.19;99517.17;1657649;84;21159;-61
2022/04/08 08:13:55;;;;;;;42.78;20.70;;;;;;;22.31;41.24;99516.59;1655694;84;21550;-62
2022/04/08 08:16:21;;;;;;;31.77;19.20;;;;;;;22.30;41.31;99513.59;1661407;84;21380;-62
2022/04/08 08:18:49;;;;;;;28.83;21.12;;;;;;;22.26;41.32;99504.39;1661447;84;21029;-60
2022/04/08 08:21:16;;;;;;;25.00;17.42;;;;;;;22.24;41.32;99506.70;1660413;84;21427;-62
2022/04/08 08:23:42;;;;;;;29.55;17.40;;;;;;;22.22;41.35;99503.50;1662254;84;21396;-60
2022/04/08 08:26:08;;;;;;;29.00;16.90;;;;;;;22.20;41.35;99505.81;1661910;84;21472;-62
2022/04/08 08:28:34;;;;;;;29.45;17.62;;;;;;;22.18;41.39;99508.73;1655381;84;21533;-61
2022/04/08 08:31:00;;;;;;;30.97;16.80;;;;;;;22.17;41.41;99507.13;1659149;84;20885;-62
2022/04/08 08:33:26;;;;;;;27.35;15.58;;;;;;;22.16;41.47;99516.59;1660445;84;22202;-62
2022/04/08 08:35:52;;;;;;;24.45;15.78;;;;;;;22.15;41.49;99516.39;1660171;84;21166;-62
2022/04/08 08:38:19;;;;;;;31.80;15.70;;;;;;;22.14;41.52;99517.55;1658514;84;20929;-61
2022/04/08 08:40:45;;;;;;;33.70;17.82;;;;;;;22.12;41.56;99526.78;1660929;84;22015;-62
2022/04/08 08:43:21;;;;;;;24.85;16.48;;;;;;;22.10;41.67;99520.23;1659087;84;21005;-60
2022/04/08 08:45:50;;;;;;;30.23;15.98;;;;;;;22.09;41.61;99525.54;1652585;84;21053;-58
2022/04/08 08:48:16;;;;;;;26.20;13.65;;;;;;;22.06;41.51;99522.11;1660287;84;21348;-59
2022/04/08 08:50:47;;;;;;;23.52;14.60;;;;;;;22.03;41.52;99535.84;1657559;84;21045;-58
2022/04/08 08:53:18;;;;;;;28.62;14.45;;;;;;;22.02;41.46;99529.53;1667197;84;21435;-61
2022/04/08 08:55:45;;;;;;;31.48;14.13;;;;;;;22.00;41.48;99525.49;1653598;84;21009;-62
2022/04/08 08:58:12;;;;;;;25.95;11.85;;;;;;;21.98;41.48;99525.84;1657151;84;21196;-60
2022/04/08 09:00:38;;;;;;;16.95;9.55;;;;;;;21.98;41.54;99533.38;1659992;84;21111;-61
2022/04/08 09:03:05;;;;;;;14.18;8.20;;;;;;;21.97;41.54;99531.75;1655122;84;21089;-61
2022/04/08 09:05:34;;;;;;;17.23;9.90;;;;;;;21.94;41.40;99529.70;1643512;85;21148;-63
2022/04/08 09:08:02;;;;;;;22.20;8.35;;;;;;;21.92;41.45;99536.14;1655002;84;21391;-60
2022/04/08 09:10:31;;;;;;;18.15;9.38;;;;;;;21.90;41.40;99537.09;1635534;85;20939;-62
2022/04/08 09:12:58;;;;;;;20.82;9.75;;;;;;;21.89;41.49;99533.52;1656697;85;21050;-63
2022/04/08 09:15:25;;;;;;;15.30;9.38;;;;;;;21.91;41.59;99535.91;1656977;85;21053;-62
2022/04/08 09:17:51;;;;;;;19.10;10.23;;;;;;;21.90;41.66;99532.94;1664873;84;21039;-60
2022/04/08 09:20:17;;;;;;;20.10;10.65;;;;;;;21.88;41.73;99544.36;1664945;84;20929;-62
2022/04/08 09:22:44;;;;;;;20.97;10.28;;;;;;;21.87;41.77;99544.13;1663528;85;20960;-62
2022/04/08 09:25:11;;;;;;;19.82;11.08;;;;;;;21.87;41.82;99549.66;1620603;85;20994;-61
2022/04/08 09:27:41;;;;;;;26.60;11.28;;;;;;;21.86;41.85;99553.59;1635597;86;20977;-61
2022/04/08 09:30:08;;;;;;;26.93;11.50;;;;;;;21.85;41.91;99550.62;1663459;84;21872;-61
2022/04/08 09:32:35;;;;;;;21.97;11.95;;;;;;;21.83;41.97;99546.81;1643017;85;21018;-61
2022/04/08 09:35:03;;;;;;;16.27;10.70;;;;;;;21.82;42.00;99542.42;1660106;85;21456;-61
2022/04/08 09:37:29;;;;;;;22.93;10.58;;;;;;;21.81;42.02;99542.19;1644513;86;21072;-60
2022/04/08 09:40:00;;;;;;;16.67;10.93;;;;;;;21.79;42.02;99538.98;1664167;85;21386;-59
2022/04/08 09:42:45;;;;;;;16.42;10.72;;;;;;;21.78;42.05;99542.11;1639879;86;21118;-62
2022/04/08 09:45:12;;;;;;;20.17;10.75;;;;;;;21.76;42.07;99532.79;1653016;86;21032;-60
2022/04/08 09:47:38;;;;;;;19.07;11.80;;;;;;;21.75;42.10;99524.83;1664572;84;21078;-61
2022/04/08 09:50:07;;;;;;;19.48;10.45;;;;;;;21.73;42.11;99526.56;1664805;84;20943;-63
2022/04/08 09:52:33;;;;;;;18.85;10.32;;;;;;;21.72;42.13;99525.55;1648052;85;21348;-60
2022/04/08 09:55:00;;;;;;;20.35;10.35;;;;;;;21.69;42.03;99523.47;1668750;85;21276;-62
2022/04/08 09:57:26;;;;;;;22.48;11.33;;;;;;;21.65;42.17;99517.04;1662782;84;21192;-62
2022/04/08 09:59:55;;;;;;;31.52;11.05;;;;;;;21.66;42.27;99528.34;1631169;87;21038;-62
2022/04/08 10:02:24;;;;;;;18.90;9.95;;;;;;;21.69;42.35;99523.47;1637730;86;20984;-60
2022/04/08 10:04:50;;;;;;;21.95;9.83;;;;;;;21.68;42.40;99537.92;1649124;86;21741;-61
2022/04/08 10:07:16;;;;;;;17.12;8.98;;;;;;;21.68;42.44;99539.30;1664751;84;21329;-61
2022/04/08 10:10:08;;;;;;;23.05;10.03;;;;;;;21.70;42.48;99537.55;1663734;85;20930;-58
2022/04/08 10:13:21;;;;;;;16.73;7.87;;;;;;;21.71;42.60;99538.58;1666654;85;22127;-62
2022/04/08 10:16:15;;;;;;;17.55;9.50;;;;;;;21.72;42.53;99535.24;1664584;84;21058;-63
2022/04/08 10:18:42;;;;;;;23.62;8.50;;;;;;;21.70;42.56;99535.58;1669100;84;20910;-61
2022/04/08 10:21:10;;;;;;;19.02;8.63;;;;;;;21.67;42.49;99530.77;1669509;84;21245;-60
2022/04/08 10:23:39;;;;;;;19.02;7.45;;;;;;;21.65;42.53;99540.56;1660452;85;20917;-61
2022/04/08 10:26:20;;;;;;;17.85;7.35;;;;;;;21.64;42.55;99538.38;1660269;84;20949;-61
2022/04/08 10:28:46;;;;;;;;;;;;;;;21.64;42.51;99543.13;1664859;85;21085;-62
2022/04/08 10:31:24;;;;;;;15.50;6.78;;;;;;;21.60;42.56;99532.55;1659379;84;20147;-60
2022/04/08 10:33:57;;;;;;;17.70;6.75;;;;;;;21.58;42.46;99532.09;1666469;85;21283;-63
2022/04/08 10:36:41;;;;;;;12.70;6.67;;;;;;;21.56;42.48;99537.96;1648622;85;21520;-63
2022/04/08 10:39:19;;;;;;;14.45;6.90;;;;;;;21.56;42.49;99531.62;1668718;85;21425;-61
2022/04/08 10:41:57;;;;;;;13.70;6.45;;;;;;;21.53;42.47;99541.45;1671682;84;21125;-62
2022/04/08 10:44:39;;;;;;;13.35;6.17;;;;;;;21.52;42.42;99538.45;1665367;84;20977;-61
2022/04/08 10:47:21;;;;;;;13.68;6.53;;;;;;;21.51;42.41;99535.48;1650504;85;21042;-61
2022/04/08 10:50:04;;;;;;;12.90;6.17;;;;;;;21.51;42.41;99533.28;1658256;85;21222;-61
2022/04/08 10:52:39;;;;;;;16.20;6.30;;;;;;;21.51;42.35;99538.82;1665056;85;20971;-61
2022/04/08 10:55:08;;;;;;;9.50;4.08;;;;;;;21.49;42.38;99539.16;1668059;85;21400;-63
2022/04/08 10:57:40;;;;;;;14.23;4.60;;;;;;;21.52;42.44;99542.59;1643497;84;20975;-62
2022/04/08 11:00:16;;;;;;;10.05;4.17;;;;;;;21.56;42.32;99543.50;1666278;84;21028;-62
2022/04/08 11:02:50;;;;;;;16.30;3.80;;;;;;;21.61;42.24;99550.16;1665648;85;20904;-62
2022/04/08 11:05:15;;;;;;;11.25;4.03;;;;;;;21.64;42.20;99548.67;1675721;84;21764;-62
2022/04/08 11:07:46;;;;;;;18.98;5.00;;;;;;;21.65;42.10;99550.25;1676384;85;20948;-60
2022/04/08 11:10:16;;;;;;;10.90;4.47;;;;;;;21.65;42.13;99553.02;1676052;85;25891;-64
2022/04/08 11:12:46;;;;;;;9.75;4.62;;;;;;;21.64;42.15;99559.74;1676152;85;22058;-62
2022/04/08 11:15:15;;;;;;;14.25;4.87;;;;;;;21.62;42.16;99555.93;1672456;85;20979;-62
2022/04/08 11:17:42;;;;;;;12.33;4.60;;;;;;;21.61;42.15;99550.73;1641845;87;20940;-62
2022/04/08 11:20:17;;;;;;;15.68;4.83;;;;;;;21.60;42.13;99553.30;1656926;85;21493;-62
2022/04/08 11:22:47;;;;;;;16.77;4.70;;;;;;;21.59;42.09;99556.65;1657547;85;21072;-61
2022/04/08 11:25:23;;;;;;;12.50;4.15;;;;;;;21.58;41.99;99559.19;1664449;85;21276;-63
2022/04/08 11:28:12;;;;;;;6.85;2.95;;;;;;;21.57;41.85;99563.10;1662321;85;21564;-62